createdAt,value
2018-06-05T00:00:31.554Z,75.30
2018-06-05T00:02:59.974Z,75.20
2018-06-05T00:05:28.415Z,75.40
2018-06-05T00:07:56.822Z,75.50
2018-06-05T00:10:25.228Z,75.70
2018-06-05T00:12:53.633Z,75.90
2018-06-05T00:15:22.034Z,77.00
2018-06-05T00:17:50.448Z,76.40
2018-06-05T00:20:18.885Z,76.40
2018-06-05T00:22:47.303Z,76.40
2018-06-05T00:25:15.721Z,76.30
2018-06-05T00:27:44.147Z,76.50
2018-06-05T00:30:12.555Z,76.40
2018-06-05T00:32:40.958Z,76.50
2018-06-05T00:35:09.358Z,76.70
2018-06-05T00:37:37.778Z,76.70
2018-06-05T00:42:34.309Z,77.20
2018-06-05T00:45:02.714Z,77.30
2018-06-05T00:47:31.139Z,77.50
2018-06-05T00:49:59.554Z,77.20
2018-06-05T00:52:27.962Z,77.10
2018-06-05T00:54:56.358Z,76.70
2018-06-05T00:57:24.771Z,76.60
2018-06-05T00:59:53.178Z,76.70
2018-06-05T01:02:21.578Z,77.00
2018-06-05T01:04:50.021Z,77.00
2018-06-05T01:07:18.431Z,77.10
2018-06-05T01:09:47.194Z,77.30
2018-06-05T01:12:15.607Z,77.30
2018-06-05T01:14:44.044Z,77.20
2018-06-05T01:19:40.553Z,77.60
2018-06-05T01:22:08.963Z,77.40
2018-06-05T01:24:37.367Z,77.40
2018-06-05T01:27:05.839Z,77.50
2018-06-05T01:29:34.308Z,77.60
2018-06-05T01:32:02.739Z,77.50
2018-06-05T01:34:31.134Z,77.70
2018-06-05T01:36:59.548Z,77.50
2018-06-05T01:39:27.967Z,77.10
2018-06-05T01:41:56.379Z,76.90
2018-06-05T01:44:24.821Z,76.80
2018-06-05T01:46:53.242Z,76.50
2018-06-05T01:49:21.688Z,76.40
2018-06-05T01:51:50.104Z,76.40
2018-06-05T01:54:18.506Z,75.70
2018-06-05T01:56:46.919Z,75.70
2018-06-05T01:59:15.322Z,75.80
2018-06-05T02:01:43.710Z,75.40
2018-06-05T02:04:12.186Z,75.10
2018-06-05T02:06:40.615Z,74.90
2018-06-05T02:09:09.130Z,74.60
2018-06-05T02:11:37.547Z,74.00
2018-06-05T02:14:05.966Z,73.80
2018-06-05T02:16:34.367Z,73.60
2018-06-05T02:19:02.778Z,73.50
2018-06-05T02:21:31.187Z,73.60
2018-06-05T02:23:59.603Z,73.60
2018-06-05T02:26:28.034Z,73.50
2018-06-05T02:28:56.460Z,73.40
2018-06-05T02:31:24.906Z,73.50
2018-06-05T02:36:21.411Z,73.60
2018-06-05T02:38:49.808Z,73.60
2018-06-05T02:41:18.221Z,73.50
2018-06-05T02:43:46.670Z,73.30
2018-06-05T02:46:15.087Z,73.40
2018-06-05T02:48:43.544Z,73.50
2018-06-05T02:51:11.969Z,73.20
2018-06-05T02:53:40.383Z,73.20
2018-06-05T02:56:08.783Z,73.10
2018-06-05T02:58:37.194Z,73.40
2018-06-05T03:01:05.598Z,72.90
2018-06-05T03:03:34.024Z,72.90
2018-06-05T03:06:02.450Z,73.10
2018-06-05T03:08:30.886Z,73.30
2018-06-05T03:10:59.302Z,73.10
2018-06-05T03:13:27.739Z,72.90
2018-06-05T03:15:56.163Z,73.10
2018-06-05T03:18:24.564Z,73.10
2018-06-05T03:20:53.010Z,73.20
2018-06-05T03:25:49.498Z,73.00
2018-06-05T03:28:17.906Z,73.00
2018-06-05T03:30:46.323Z,72.90
2018-06-05T03:33:14.720Z,73.00
2018-06-05T03:35:43.127Z,73.00
2018-06-05T03:38:11.547Z,73.10
2018-06-05T03:40:39.945Z,73.10
2018-06-05T03:43:08.348Z,73.40
2018-06-05T03:45:36.758Z,73.70
2018-06-05T03:48:05.162Z,73.90
2018-06-05T03:50:33.567Z,73.90
2018-06-05T03:53:01.989Z,73.70
2018-06-05T03:55:30.390Z,73.70
2018-06-05T03:57:58.793Z,73.80
2018-06-05T04:00:27.214Z,73.90
2018-06-05T04:02:55.626Z,73.80
2018-06-05T04:05:24.065Z,73.90
2018-06-05T04:07:52.491Z,74.10
2018-06-05T04:10:20.905Z,73.90
2018-06-05T04:12:49.370Z,74.00
2018-06-05T04:15:17.786Z,74.50
2018-06-05T04:17:46.187Z,74.50
2018-06-05T04:20:14.601Z,74.20
2018-06-05T04:22:43.025Z,73.70
2018-06-05T04:25:11.471Z,73.50
2018-06-05T04:27:39.906Z,73.50
2018-06-05T04:30:08.326Z,73.30
2018-06-05T04:32:36.744Z,73.10
2018-06-05T04:35:05.159Z,73.00
2018-06-05T04:37:33.562Z,73.10
2018-06-05T04:40:02.007Z,72.90
2018-06-05T04:42:30.421Z,72.90
2018-06-05T04:44:58.848Z,73.00
2018-06-05T04:47:27.276Z,72.60
2018-06-05T04:49:55.682Z,72.50
2018-06-05T04:52:24.102Z,72.30
2018-06-05T04:54:52.506Z,72.20
2018-06-05T04:57:20.930Z,72.00
2018-06-05T04:59:49.437Z,71.80
2018-06-05T05:02:17.797Z,71.80
2018-06-05T05:04:46.274Z,71.70
2018-06-05T05:07:14.696Z,71.30
2018-06-05T05:09:43.197Z,71.30
2018-06-05T05:12:11.605Z,70.70
2018-06-05T05:14:40.103Z,70.70
2018-06-05T05:17:08.526Z,71.00
2018-06-05T05:19:36.930Z,70.90
2018-06-05T05:22:05.372Z,70.80
2018-06-05T05:24:33.790Z,70.50
2018-06-05T05:27:02.200Z,70.50
2018-06-05T05:29:30.617Z,71.40
2018-06-05T05:31:59.038Z,70.50
2018-06-05T05:34:27.441Z,70.20
2018-06-05T05:36:55.835Z,69.80
2018-06-05T05:39:24.241Z,69.60
2018-06-05T05:41:52.679Z,69.80
2018-06-05T05:44:21.076Z,69.50
2018-06-05T05:46:49.492Z,69.60
2018-06-05T05:49:17.882Z,69.50
2018-06-05T05:51:46.298Z,69.70
2018-06-05T05:54:14.695Z,70.40
2018-06-05T05:56:43.103Z,69.90
2018-06-05T05:59:11.589Z,70.10
2018-06-05T06:01:39.999Z,70.00
2018-06-05T06:04:08.418Z,70.00
2018-06-05T06:06:36.881Z,70.40
2018-06-05T06:09:07.928Z,70.70
2018-06-05T06:11:36.345Z,70.40
2018-06-05T06:14:04.779Z,70.20
2018-06-05T06:16:33.207Z,69.70
2018-06-05T06:21:29.734Z,69.80
2018-06-05T06:23:58.138Z,69.50
2018-06-05T06:28:54.644Z,69.40
2018-06-05T06:31:23.087Z,69.40
2018-06-05T06:33:51.470Z,69.20
2018-06-05T06:36:19.903Z,69.20
2018-06-05T06:38:48.310Z,69.40
2018-06-05T06:41:16.718Z,69.20
2018-06-05T06:43:45.147Z,68.90
2018-06-05T06:46:13.560Z,70.20
2018-06-05T06:48:42.043Z,69.10
2018-06-05T06:51:10.394Z,69.10
2018-06-05T06:53:38.804Z,69.10
2018-06-05T06:56:07.245Z,68.90
2018-06-05T06:58:35.655Z,69.10
2018-06-05T07:01:04.074Z,68.50
2018-06-05T07:03:32.506Z,69.00
2018-06-05T07:06:00.939Z,67.90
2018-06-05T07:08:29.351Z,67.80
2018-06-05T07:10:57.790Z,67.60
2018-06-05T07:13:26.206Z,67.50
2018-06-05T07:15:54.639Z,67.50
2018-06-05T07:18:23.067Z,67.50
2018-06-05T07:20:51.506Z,66.60
2018-06-05T07:23:19.921Z,67.10
2018-06-05T07:25:48.330Z,67.10
2018-06-05T07:28:16.734Z,66.60
2018-06-05T07:30:45.158Z,66.80
2018-06-05T07:33:13.577Z,66.10
2018-06-05T07:35:41.995Z,66.70
2018-06-05T07:38:10.442Z,67.10
2018-06-05T07:40:38.849Z,67.20
2018-06-05T07:43:07.270Z,67.10
2018-06-05T07:45:35.699Z,66.70
2018-06-05T07:48:05.026Z,65.10
2018-06-05T07:50:33.438Z,64.70
2018-06-05T07:53:01.842Z,64.90
2018-06-05T07:55:30.263Z,64.30
2018-06-05T07:57:58.690Z,64.20
2018-06-05T08:00:27.099Z,63.90
2018-06-05T08:02:55.522Z,63.30
2018-06-05T08:05:23.934Z,63.60
2018-06-05T08:07:52.350Z,64.10
2018-06-05T08:10:20.766Z,64.00
2018-06-05T08:12:49.187Z,64.10
2018-06-05T08:15:17.585Z,64.40
2018-06-05T08:17:46.006Z,64.00
2018-06-05T08:20:14.414Z,63.90
2018-06-05T08:22:52.461Z,64.10
2018-06-05T08:25:20.883Z,63.90
2018-06-05T08:27:49.290Z,63.30
2018-06-05T08:30:18.228Z,63.30
2018-06-05T08:32:46.650Z,63.50
2018-06-05T08:35:15.075Z,63.30
2018-06-05T08:37:43.554Z,64.20
2018-06-05T08:40:11.927Z,63.90
2018-06-05T08:42:40.403Z,63.70
2018-06-05T08:45:08.856Z,63.10
2018-06-05T08:47:37.266Z,63.20
2018-06-05T08:50:05.707Z,63.10
2018-06-05T08:52:34.141Z,63.50
2018-06-05T08:55:02.572Z,64.20
2018-06-05T08:57:30.992Z,64.00
2018-06-05T08:59:59.474Z,64.30
2018-06-05T09:02:27.849Z,64.10
2018-06-05T09:04:56.263Z,64.30
2018-06-05T09:07:24.675Z,63.80
2018-06-05T09:09:53.074Z,63.10
2018-06-05T09:12:21.487Z,62.50
2018-06-05T09:14:49.943Z,62.50
2018-06-05T09:17:18.358Z,61.70
2018-06-05T09:19:46.783Z,63.40
2018-06-05T09:22:15.265Z,63.20
2018-06-05T09:24:43.699Z,62.60
2018-06-05T09:27:13.970Z,62.20
2018-06-05T09:29:42.440Z,62.10
2018-06-05T09:32:10.887Z,61.20
2018-06-05T09:34:39.335Z,61.00
2018-06-05T09:37:07.803Z,61.30
2018-06-05T09:39:36.224Z,61.00
2018-06-05T09:42:04.640Z,61.10
2018-06-05T09:44:33.098Z,60.40
2018-06-05T09:47:01.550Z,60.40
2018-06-05T09:49:29.955Z,60.50
2018-06-05T09:51:58.441Z,60.50
2018-06-05T09:54:26.869Z,60.30
2018-06-05T09:56:55.300Z,60.50
2018-06-05T09:59:23.745Z,60.50
2018-06-05T10:01:52.203Z,61.10
2018-06-05T10:04:20.620Z,60.70
2018-06-05T10:06:49.045Z,60.80
2018-06-05T10:09:17.452Z,60.70
2018-06-05T10:11:48.495Z,59.90
2018-06-05T10:14:16.916Z,60.00
2018-06-05T10:16:45.375Z,59.70
2018-06-05T10:19:13.817Z,60.00
2018-06-05T10:21:42.229Z,60.70
2018-06-05T10:24:10.656Z,60.30
2018-06-05T10:26:39.078Z,60.40
2018-06-05T10:29:08.582Z,59.20
2018-06-05T10:31:37.943Z,59.10
2018-06-05T10:34:06.363Z,58.30
2018-06-05T10:36:34.788Z,58.20
2018-06-05T10:39:03.295Z,57.80
2018-06-05T10:41:31.720Z,58.10
2018-06-05T10:44:00.130Z,57.00
2018-06-05T10:46:28.528Z,56.50
2018-06-05T10:51:25.048Z,56.00
2018-06-05T10:53:53.475Z,56.20
2018-06-05T10:56:21.908Z,55.80
2018-06-05T10:58:50.345Z,55.60
2018-06-05T11:01:19.541Z,55.40
2018-06-05T11:03:47.986Z,55.20
2018-06-05T11:06:16.409Z,55.70
2018-06-05T11:08:44.882Z,55.30
2018-06-05T11:11:13.318Z,55.10
2018-06-05T11:13:41.730Z,54.10
2018-06-05T11:16:11.030Z,54.20
2018-06-05T11:18:39.476Z,54.80
2018-06-05T11:21:07.899Z,54.40
2018-06-05T11:23:36.336Z,54.40
2018-06-05T11:26:04.778Z,54.10
2018-06-05T11:28:33.195Z,54.20
2018-06-05T11:31:01.607Z,54.40
2018-06-05T11:33:30.027Z,54.90
2018-06-05T11:35:58.486Z,54.60
2018-06-05T11:38:26.912Z,54.40
2018-06-05T11:40:55.334Z,54.40
2018-06-05T11:43:23.757Z,54.20
2018-06-05T11:45:52.170Z,54.90
2018-06-05T11:48:20.588Z,55.00
2018-06-05T11:50:49.023Z,54.80
2018-06-05T11:53:17.452Z,54.80
2018-06-05T11:55:45.935Z,54.70
2018-06-05T11:58:14.916Z,54.70
2018-06-05T12:00:43.511Z,55.20
2018-06-05T12:03:11.906Z,55.60
2018-06-05T12:05:41.499Z,55.40
2018-06-05T12:10:38.116Z,55.40
2018-06-05T12:13:06.875Z,55.30
2018-06-05T12:15:35.275Z,55.60
2018-06-05T12:18:03.694Z,56.40
2018-06-05T12:20:32.103Z,56.70
2018-06-05T12:23:00.572Z,55.90
2018-06-05T12:25:28.987Z,56.30
2018-06-05T12:27:57.446Z,56.60
2018-06-05T12:30:25.869Z,57.50
2018-06-05T12:32:54.301Z,57.50
2018-06-05T12:35:23.048Z,56.90
2018-06-05T12:37:51.459Z,56.40
2018-06-05T12:40:19.914Z,56.70
2018-06-05T12:42:48.322Z,56.90
2018-06-05T12:45:16.755Z,56.90
2018-06-05T12:47:45.170Z,56.90
2018-06-05T12:50:13.595Z,57.00
2018-06-05T12:52:42.011Z,56.80
2018-06-05T12:55:10.426Z,56.50
2018-06-05T12:57:38.842Z,56.50
2018-06-05T13:00:07.269Z,56.70
2018-06-05T13:02:35.671Z,56.10
2018-06-05T13:05:04.654Z,55.90
2018-06-05T13:07:33.190Z,55.70
2018-06-05T13:10:01.608Z,55.90
2018-06-05T13:12:30.040Z,54.70
2018-06-05T13:14:58.454Z,53.10
2018-06-05T13:17:27.553Z,53.00
2018-06-05T13:19:55.955Z,52.30
2018-06-05T13:22:24.373Z,52.00
2018-06-05T13:24:52.784Z,52.20
2018-06-05T13:27:21.193Z,52.60
2018-06-05T13:29:49.704Z,53.10
2018-06-05T13:32:18.158Z,52.90
2018-06-05T13:34:46.609Z,53.70
2018-06-05T13:37:15.035Z,53.60
2018-06-05T13:39:43.475Z,53.70
2018-06-05T13:42:11.889Z,53.40
2018-06-05T13:44:40.305Z,53.70
2018-06-05T13:47:08.727Z,53.80
2018-06-05T13:49:37.158Z,53.50
2018-06-05T13:52:05.574Z,53.40
2018-06-05T13:54:33.990Z,53.30
2018-06-05T13:57:02.405Z,53.60
2018-06-05T13:59:30.816Z,53.60
2018-06-05T14:01:59.235Z,54.10
2018-06-05T14:04:27.638Z,54.00
2018-06-05T14:09:24.188Z,54.00
2018-06-05T14:11:52.627Z,54.60
2018-06-05T14:14:21.046Z,54.20
2018-06-05T14:16:49.450Z,53.80
2018-06-05T14:19:17.874Z,54.10
2018-06-05T14:21:46.327Z,53.60
2018-06-05T14:24:14.756Z,54.50
2018-06-05T14:26:43.171Z,54.50
2018-06-05T14:29:11.619Z,53.50
2018-06-05T14:31:40.046Z,53.70
2018-06-05T14:34:08.474Z,53.90
2018-06-05T14:36:36.878Z,54.40
2018-06-05T14:39:07.735Z,54.50
2018-06-05T14:41:36.234Z,55.20
2018-06-05T14:44:04.666Z,55.00
2018-06-05T14:46:33.080Z,54.70
2018-06-05T14:49:01.518Z,55.20
2018-06-05T14:51:29.933Z,55.20
2018-06-05T14:53:58.347Z,54.60
2018-06-05T14:56:27.184Z,55.50
2018-06-05T14:58:55.593Z,57.30
2018-06-05T15:01:24.042Z,56.20
2018-06-05T15:03:52.465Z,56.50
2018-06-05T15:06:20.884Z,57.20
2018-06-05T15:08:49.290Z,56.90
2018-06-05T15:11:17.703Z,57.70
2018-06-05T15:13:46.527Z,57.40
2018-06-05T15:16:14.959Z,57.60
2018-06-05T15:18:43.377Z,57.90
2018-06-05T15:21:11.791Z,57.30
2018-06-05T15:23:40.206Z,57.60
2018-06-05T15:26:08.627Z,58.10
2018-06-05T15:28:37.050Z,57.90
2018-06-05T15:33:33.594Z,57.20
2018-06-05T15:36:02.015Z,56.90
2018-06-05T15:38:30.459Z,57.30
2018-06-05T15:40:58.895Z,57.40
2018-06-05T15:43:27.306Z,58.00
2018-06-05T15:45:55.727Z,58.20
2018-06-05T15:48:24.149Z,57.80
2018-06-05T15:50:52.578Z,58.30
2018-06-05T15:53:21.014Z,58.40
2018-06-05T15:55:49.436Z,58.60
2018-06-05T15:58:17.863Z,58.20
2018-06-05T16:00:46.418Z,58.40
2018-06-05T16:03:14.845Z,57.70
2018-06-05T16:05:43.263Z,57.10
2018-06-05T16:08:11.694Z,57.60
2018-06-05T16:10:40.111Z,57.10
2018-06-05T16:13:08.527Z,56.90
2018-06-05T16:15:36.945Z,57.10
2018-06-05T16:18:05.442Z,57.00
2018-06-05T16:20:33.858Z,57.20
2018-06-05T16:23:02.335Z,57.30
2018-06-05T16:25:30.762Z,57.20
2018-06-05T16:27:59.175Z,57.70
2018-06-05T16:30:27.622Z,57.20
2018-06-05T16:32:56.042Z,57.30
2018-06-05T16:35:24.562Z,56.60
2018-06-05T16:37:52.967Z,56.40
2018-06-05T16:40:21.403Z,56.50
2018-06-05T16:42:49.860Z,56.90
2018-06-05T16:45:18.551Z,57.10
2018-06-05T16:47:47.002Z,57.40
2018-06-05T16:50:15.431Z,57.40
2018-06-05T16:52:43.858Z,57.20
2018-06-05T16:55:12.280Z,57.20
2018-06-05T16:57:40.690Z,57.80
2018-06-05T17:00:09.151Z,57.90
2018-06-05T17:02:37.567Z,57.00
2018-06-05T17:05:06.092Z,56.70
2018-06-05T17:07:34.502Z,56.90
2018-06-05T17:10:02.928Z,56.80
2018-06-05T17:12:31.339Z,57.20
2018-06-05T17:14:59.773Z,57.90
2018-06-05T17:17:28.204Z,58.40
2018-06-05T17:19:56.637Z,58.90
2018-06-05T17:22:25.065Z,58.10
2018-06-05T17:24:53.982Z,58.00
2018-06-05T17:27:22.464Z,57.90
2018-06-05T17:29:50.843Z,57.80
2018-06-05T17:32:19.292Z,57.30
2018-06-05T17:34:47.730Z,57.30
2018-06-05T17:37:16.138Z,57.70
2018-06-05T17:39:44.563Z,58.50
2018-06-05T17:44:41.129Z,58.20
2018-06-05T17:47:09.571Z,58.60
2018-06-05T17:49:37.990Z,58.20
2018-06-05T17:54:34.506Z,57.70
2018-06-05T17:57:02.927Z,58.10
2018-06-05T18:01:59.542Z,58.40
2018-06-05T18:04:27.957Z,59.10
2018-06-05T18:06:56.387Z,59.80
2018-06-05T18:09:24.803Z,60.20
2018-06-05T18:11:53.224Z,60.00
2018-06-05T18:14:21.634Z,60.00
2018-06-05T18:16:50.056Z,60.10
2018-06-05T18:19:18.462Z,60.00
2018-06-05T18:21:46.886Z,60.60
2018-06-05T18:24:15.322Z,60.30
2018-06-05T18:26:43.769Z,61.10
2018-06-05T18:29:12.254Z,62.30
2018-06-05T18:31:41.190Z,64.10
2018-06-05T18:34:09.609Z,63.40
2018-06-05T18:36:38.046Z,64.30
2018-06-05T18:39:08.650Z,63.00
2018-06-05T18:44:05.190Z,64.10
2018-06-05T18:46:33.624Z,65.40
2018-06-05T18:49:02.121Z,64.40
2018-06-05T18:51:30.538Z,66.00
2018-06-05T18:53:58.982Z,66.20
2018-06-05T18:56:27.398Z,66.50
2018-06-05T18:58:55.825Z,66.80
2018-06-05T19:01:24.235Z,67.30
2018-06-05T19:03:52.658Z,67.50
2018-06-05T19:06:21.102Z,67.60
2018-06-05T19:08:50.198Z,67.40
2018-06-05T19:11:18.630Z,67.70
2018-06-05T19:13:47.043Z,68.00
2018-06-05T19:16:15.482Z,68.10
2018-06-05T19:18:43.907Z,68.60
2018-06-05T19:21:12.336Z,68.80
2018-06-05T19:23:40.759Z,69.50
2018-06-05T19:26:09.165Z,70.20
2018-06-05T19:28:37.603Z,70.60
2018-06-05T19:31:06.043Z,71.70
2018-06-05T19:33:34.485Z,71.10
2018-06-05T19:36:02.890Z,71.30
2018-06-05T19:38:31.350Z,71.50
2018-06-05T19:40:59.788Z,71.60
2018-06-05T19:43:28.220Z,72.10
2018-06-05T19:47:25.843Z,71.90
2018-06-05T19:49:54.274Z,72.30
2018-06-05T19:52:22.693Z,72.90
2018-06-05T19:54:51.146Z,73.50
2018-06-05T19:57:19.586Z,73.90
2018-06-05T19:59:48.023Z,74.20
2018-06-05T20:02:16.427Z,74.60
2018-06-05T20:04:44.848Z,74.80
2018-06-05T20:07:13.651Z,75.10
2018-06-05T20:09:42.065Z,75.30
2018-06-05T20:12:10.487Z,75.70
2018-06-05T20:14:38.934Z,76.10
2018-06-05T20:17:07.350Z,76.90
2018-06-05T20:19:35.770Z,76.30
2018-06-05T20:22:04.186Z,76.60
2018-06-05T20:24:32.619Z,77.10
2018-06-05T20:27:01.033Z,77.20
2018-06-05T20:29:29.454Z,77.40
2018-06-05T20:31:57.894Z,77.60
2018-06-05T20:34:26.310Z,78.10
2018-06-05T20:36:54.738Z,78.20
2018-06-05T20:39:23.153Z,78.50
2018-06-05T20:41:51.582Z,78.80
2018-06-05T20:44:20.007Z,78.90
2018-06-05T20:46:48.407Z,79.00
2018-06-05T20:49:17.148Z,79.10
2018-06-05T20:51:46.890Z,79.30
2018-06-05T20:54:15.362Z,79.40
2018-06-05T20:56:43.785Z,79.50
2018-06-05T20:59:12.221Z,79.50
2018-06-05T21:01:40.631Z,79.70
2018-06-05T21:04:09.083Z,79.90
2018-06-05T21:06:37.503Z,80.00
2018-06-05T21:09:07.361Z,80.20
2018-06-05T21:11:35.858Z,80.50
2018-06-05T21:14:04.427Z,80.30
2018-06-05T21:16:32.842Z,80.40
2018-06-05T21:19:01.286Z,80.60
2018-06-05T21:21:29.699Z,80.70
2018-06-05T21:23:58.134Z,80.80
2018-06-05T21:26:26.542Z,81.00
2018-06-05T21:28:54.974Z,81.10
2018-06-05T21:31:23.399Z,81.10
2018-06-05T21:33:51.852Z,81.30
2018-06-05T21:36:21.456Z,81.30
2018-06-05T21:38:49.867Z,81.40
2018-06-05T21:41:18.418Z,81.30
2018-06-05T21:43:47.220Z,81.40
2018-06-05T21:46:16.008Z,81.50
2018-06-05T21:48:44.457Z,81.70
2018-06-05T21:51:12.909Z,82.00
2018-06-05T21:53:41.410Z,82.00
2018-06-05T21:56:10.133Z,82.00
2018-06-05T21:58:38.935Z,82.30
2018-06-05T22:01:07.359Z,82.40
2018-06-05T22:03:35.811Z,82.30
2018-06-05T22:06:04.230Z,82.40
2018-06-05T22:08:32.703Z,82.50
2018-06-05T22:11:01.114Z,82.80
2018-06-05T22:13:29.550Z,82.70
2018-06-05T22:15:57.987Z,82.80
2018-06-05T22:18:26.403Z,83.20
2018-06-05T22:20:54.834Z,83.00
2018-06-05T22:23:23.258Z,83.10
2018-06-05T22:25:51.730Z,83.10
2018-06-05T22:28:20.146Z,83.10
2018-06-05T22:30:48.589Z,82.90
2018-06-05T22:33:17.010Z,82.80
2018-06-05T22:35:45.447Z,82.70
2018-06-05T22:38:16.238Z,82.70
2018-06-05T22:40:44.674Z,82.90
2018-06-05T22:43:13.162Z,83.40
2018-06-05T22:45:41.586Z,83.40
2018-06-05T22:48:10.203Z,83.50
2018-06-05T22:50:38.670Z,83.70
2018-06-05T22:53:07.121Z,83.80
2018-06-05T22:55:35.554Z,83.80
2018-06-05T22:58:04.016Z,84.10
2018-06-05T23:00:33.443Z,84.40
2018-06-05T23:03:01.909Z,84.50
2018-06-05T23:05:30.370Z,84.60
2018-06-05T23:07:58.809Z,84.40
2018-06-05T23:10:27.236Z,84.50
2018-06-05T23:12:55.647Z,84.60
2018-06-05T23:15:24.067Z,84.80
2018-06-05T23:17:52.511Z,84.70
2018-06-05T23:20:20.930Z,84.80
2018-06-05T23:22:49.351Z,84.80
2018-06-05T23:25:17.777Z,84.80
2018-06-05T23:27:46.253Z,85.10
2018-06-05T23:30:14.663Z,85.10
2018-06-05T23:32:43.163Z,85.20
2018-06-05T23:35:11.576Z,85.00
2018-06-05T23:37:40.007Z,84.80
2018-06-05T23:40:08.479Z,84.50
2018-06-05T23:42:36.942Z,84.20
2018-06-05T23:45:05.434Z,84.00
2018-06-05T23:47:33.848Z,83.70
2018-06-05T23:50:04.901Z,83.60
2018-06-05T23:52:33.335Z,83.80
2018-06-05T23:55:01.742Z,83.60
2018-06-05T23:57:30.155Z,83.80
2018-06-05T23:59:58.583Z,84.20
